createdAt,value
2022-12-24T00:00:11.351Z,75.15
2022-12-24T00:02:38.233Z,76.17
2022-12-24T00:05:05.559Z,76.58
2022-12-24T00:07:32.238Z,77.25
2022-12-24T00:09:58.906Z,77.26
2022-12-24T00:12:25.540Z,77.19
2022-12-24T00:14:52.238Z,77.29
2022-12-24T00:17:18.909Z,77.27
2022-12-24T00:19:45.568Z,77.46
2022-12-24T00:22:12.220Z,76.65
2022-12-24T00:24:38.930Z,78.09
2022-12-24T00:27:05.584Z,77.76
2022-12-24T00:29:32.697Z,77.09
2022-12-24T00:31:59.449Z,77.29
2022-12-24T00:34:26.104Z,76.96
2022-12-24T00:36:52.750Z,76.71
2022-12-24T00:39:19.582Z,76.84
2022-12-24T00:41:46.278Z,77.23
2022-12-24T00:44:12.953Z,77.40
2022-12-24T00:46:40.582Z,76.46
2022-12-24T00:49:07.577Z,76.54
2022-12-24T00:51:35.122Z,76.66
2022-12-24T00:54:01.838Z,76.63
2022-12-24T00:56:28.510Z,76.67
2022-12-24T00:58:55.188Z,76.99
2022-12-24T01:01:22.327Z,77.24
2022-12-24T01:03:49.096Z,76.20
2022-12-24T01:06:17.500Z,76.99
2022-12-24T01:08:44.233Z,76.55
2022-12-24T01:11:11.005Z,77.34
2022-12-24T01:13:37.854Z,78.11
2022-12-24T01:16:11.994Z,79.60
2022-12-24T01:18:38.624Z,80.62
2022-12-24T01:21:05.344Z,80.67
2022-12-24T01:23:32.403Z,81.17
2022-12-24T01:26:02.491Z,81.56
2022-12-24T01:28:29.239Z,80.78
2022-12-24T01:30:55.910Z,80.73
2022-12-24T01:33:22.756Z,79.20
2022-12-24T01:35:49.419Z,79.63
2022-12-24T01:38:16.135Z,79.38
2022-12-24T01:40:42.776Z,79.08
2022-12-24T01:43:29.562Z,78.12
2022-12-24T01:45:56.766Z,78.02
2022-12-24T01:48:42.824Z,77.97
2022-12-24T01:51:35.893Z,78.52
2022-12-24T01:54:30.454Z,78.17
2022-12-24T01:57:05.339Z,77.21
2022-12-24T01:59:32.331Z,77.82
2022-12-24T02:01:59.156Z,78.86
2022-12-24T02:04:38.137Z,78.79
2022-12-24T02:07:04.983Z,80.30
2022-12-24T02:09:32.936Z,80.39
2022-12-24T02:12:03.017Z,81.29
2022-12-24T02:14:29.646Z,81.38
2022-12-24T02:17:05.539Z,81.90
2022-12-24T02:19:35.027Z,81.71
2022-12-24T02:22:08.199Z,80.93
2022-12-24T02:24:41.018Z,81.46
2022-12-24T02:27:21.555Z,80.53
2022-12-24T02:29:56.576Z,80.69
2022-12-24T02:32:24.636Z,80.08
2022-12-24T02:34:57.341Z,81.10
2022-12-24T02:37:54.946Z,82.06
2022-12-24T02:40:28.373Z,81.57
2022-12-24T02:42:58.453Z,81.22
2022-12-24T02:45:32.259Z,80.63
2022-12-24T02:47:58.923Z,79.99
2022-12-24T02:50:25.548Z,79.41
2022-12-24T02:52:52.159Z,79.73
2022-12-24T02:55:45.394Z,79.91
2022-12-24T02:58:29.852Z,79.42
2022-12-24T03:01:23.897Z,79.69
2022-12-24T03:04:03.203Z,79.08
2022-12-24T03:06:32.864Z,79.34
2022-12-24T03:09:25.222Z,78.67
2022-12-24T03:12:16.674Z,78.98
2022-12-24T03:14:43.316Z,78.67
2022-12-24T03:17:10.014Z,78.26
2022-12-24T03:19:36.731Z,77.81
2022-12-24T03:22:04.377Z,77.46
2022-12-24T03:24:31.061Z,79.30
2022-12-24T03:26:57.681Z,80.82
2022-12-24T03:29:24.338Z,81.50
2022-12-24T03:31:51.948Z,81.57
2022-12-24T03:34:19.021Z,80.61
2022-12-24T03:36:46.259Z,79.82
2022-12-24T03:39:12.879Z,79.74
2022-12-24T03:41:39.765Z,79.93
2022-12-24T03:44:06.417Z,79.95
2022-12-24T03:46:33.061Z,80.22
2022-12-24T03:48:59.742Z,79.79
2022-12-24T03:51:26.440Z,79.39
2022-12-24T03:53:53.353Z,80.01
2022-12-24T03:56:20.259Z,79.39
2022-12-24T03:58:46.919Z,79.00
2022-12-24T04:01:13.710Z,78.68
2022-12-24T04:03:40.468Z,77.83
2022-12-24T04:06:08.890Z,77.94
2022-12-24T04:08:35.865Z,77.15
2022-12-24T04:11:09.856Z,77.43
2022-12-24T04:13:36.853Z,77.97
2022-12-24T04:16:06.167Z,77.13
2022-12-24T04:18:32.875Z,77.67
2022-12-24T04:20:59.711Z,78.18
2022-12-24T04:23:26.428Z,78.06
2022-12-24T04:25:53.068Z,78.26
2022-12-24T04:28:19.708Z,76.97
2022-12-24T04:30:46.586Z,77.45
2022-12-24T04:33:13.283Z,77.81
2022-12-24T04:35:42.204Z,77.78
2022-12-24T04:38:09.303Z,77.75
2022-12-24T04:40:36.274Z,76.36
2022-12-24T04:43:02.902Z,75.53
2022-12-24T04:45:29.592Z,75.60
2022-12-24T04:47:56.269Z,76.03
2022-12-24T04:50:22.925Z,75.78
2022-12-24T04:52:50.128Z,75.68
2022-12-24T04:55:16.763Z,75.87
2022-12-24T04:57:46.189Z,76.55
2022-12-24T05:00:15.078Z,77.91
2022-12-24T05:02:41.824Z,77.82
2022-12-24T05:05:08.823Z,77.61
2022-12-24T05:07:35.476Z,77.14
2022-12-24T05:10:02.189Z,76.07
2022-12-24T05:12:28.824Z,76.02
2022-12-24T05:14:55.474Z,76.20
2022-12-24T05:17:22.680Z,76.54
2022-12-24T05:19:49.397Z,75.64
2022-12-24T05:22:16.064Z,76.07
2022-12-24T05:24:42.739Z,75.54
2022-12-24T05:27:09.395Z,76.04
2022-12-24T05:29:36.169Z,76.11
2022-12-24T05:32:02.783Z,75.93
2022-12-24T05:34:29.437Z,76.22
2022-12-24T05:36:56.317Z,76.92
2022-12-24T05:39:22.949Z,76.40
2022-12-24T05:41:49.579Z,76.26
2022-12-24T05:44:16.355Z,75.53
2022-12-24T05:46:43.711Z,75.82
2022-12-24T05:49:10.448Z,75.99
2022-12-24T05:51:37.162Z,76.45
2022-12-24T05:54:04.763Z,77.33
2022-12-24T05:56:31.433Z,77.49
2022-12-24T05:58:58.278Z,77.45
2022-12-24T06:01:25.009Z,76.61
2022-12-24T06:03:52.107Z,77.37
2022-12-24T06:06:21.075Z,77.40
2022-12-24T06:08:48.434Z,77.25
2022-12-24T06:11:16.794Z,76.84
2022-12-24T06:13:43.725Z,76.72
2022-12-24T06:16:15.284Z,76.35
2022-12-24T06:18:42.130Z,76.47
2022-12-24T06:21:08.935Z,76.28
2022-12-24T06:23:36.668Z,76.49
2022-12-24T06:26:03.453Z,76.89
2022-12-24T06:28:31.292Z,76.72
2022-12-24T06:31:02.583Z,76.29
2022-12-24T06:33:30.773Z,76.81
2022-12-24T06:35:57.401Z,76.68
2022-12-24T06:38:24.042Z,76.42
2022-12-24T06:40:50.715Z,76.36
2022-12-24T06:43:17.359Z,76.67
2022-12-24T06:45:47.285Z,77.26
2022-12-24T06:48:14.327Z,77.29
2022-12-24T06:50:41.031Z,76.87
2022-12-24T06:53:07.643Z,76.84
2022-12-24T06:55:34.818Z,76.86
2022-12-24T06:58:01.475Z,76.77
2022-12-24T07:00:28.195Z,76.77
2022-12-24T07:02:54.908Z,76.63
2022-12-24T07:05:21.561Z,76.89
2022-12-24T07:07:48.215Z,76.53
2022-12-24T07:10:16.322Z,77.26
2022-12-24T07:12:43.148Z,76.52
2022-12-24T07:15:10.354Z,76.76
2022-12-24T07:17:37.046Z,76.21
2022-12-24T07:20:04.658Z,76.13
2022-12-24T07:22:31.408Z,76.73
2022-12-24T07:24:58.027Z,77.29
2022-12-24T07:27:24.757Z,77.39
2022-12-24T07:29:51.411Z,77.21
2022-12-24T07:32:18.062Z,76.16
2022-12-24T07:34:45.059Z,76.74
2022-12-24T07:37:11.925Z,76.86
2022-12-24T07:39:38.945Z,76.90
2022-12-24T07:42:05.800Z,77.01
2022-12-24T07:44:32.442Z,76.89
2022-12-24T07:46:59.142Z,77.41
2022-12-24T07:49:26.092Z,77.13
2022-12-24T07:51:52.737Z,76.61
2022-12-24T07:54:19.709Z,76.40
2022-12-24T07:56:46.737Z,76.53
2022-12-24T07:59:13.474Z,75.87
2022-12-24T08:01:40.609Z,76.52
2022-12-24T08:04:07.443Z,76.09
2022-12-24T08:06:34.335Z,75.93
2022-12-24T08:09:00.991Z,75.92
2022-12-24T08:11:27.622Z,76.02
2022-12-24T08:13:54.284Z,75.24
2022-12-24T08:16:21.009Z,74.77
2022-12-24T08:18:47.675Z,74.52
2022-12-24T08:21:14.296Z,74.78
2022-12-24T08:23:41.237Z,75.69
2022-12-24T08:26:08.590Z,76.64
2022-12-24T08:28:35.213Z,76.67
2022-12-24T08:31:01.849Z,77.14
2022-12-24T08:33:28.465Z,76.41
2022-12-24T08:35:55.718Z,76.24
2022-12-24T08:38:22.441Z,76.14
2022-12-24T08:40:49.079Z,76.28
2022-12-24T08:43:18.939Z,76.53
2022-12-24T08:45:46.559Z,77.13
2022-12-24T08:48:13.262Z,77.25
2022-12-24T08:50:40.145Z,76.65
2022-12-24T08:53:07.053Z,77.04
2022-12-24T08:55:33.703Z,77.00
2022-12-24T08:58:00.512Z,77.20
2022-12-24T09:00:27.408Z,76.96
2022-12-24T09:02:54.132Z,76.63
2022-12-24T09:05:20.823Z,77.08
2022-12-24T09:07:47.486Z,76.95
2022-12-24T09:10:14.140Z,76.19
2022-12-24T09:12:40.769Z,75.30
2022-12-24T09:15:08.014Z,75.34
2022-12-24T09:17:35.788Z,75.07
2022-12-24T09:20:03.324Z,76.01
2022-12-24T09:22:29.944Z,75.67
2022-12-24T09:24:56.626Z,75.13
2022-12-24T09:27:23.254Z,75.32
2022-12-24T09:29:49.927Z,75.86
2022-12-24T09:32:16.828Z,76.51
2022-12-24T09:34:43.480Z,76.27
2022-12-24T09:37:10.127Z,76.32
2022-12-24T09:39:36.776Z,76.98
2022-12-24T09:42:26.354Z,77.08
2022-12-24T09:45:01.060Z,76.17
2022-12-24T09:47:32.306Z,75.91
2022-12-24T09:50:00.136Z,75.58
2022-12-24T09:52:35.713Z,75.56
2022-12-24T09:55:07.687Z,75.46
2022-12-24T09:57:37.858Z,75.80
2022-12-24T10:00:05.564Z,75.81
2022-12-24T10:02:32.355Z,75.90
2022-12-24T10:04:59.100Z,75.62
2022-12-24T10:07:37.460Z,75.19
2022-12-24T10:10:09.910Z,75.18
2022-12-24T10:12:47.712Z,75.39
2022-12-24T10:15:29.243Z,75.57
2022-12-24T10:18:08.071Z,76.00
2022-12-24T10:20:37.587Z,76.13
2022-12-24T10:23:06.440Z,75.55
2022-12-24T10:25:42.173Z,74.99
2022-12-24T10:28:17.451Z,75.64
2022-12-24T10:30:46.800Z,76.77
2022-12-24T10:33:18.055Z,77.10
2022-12-24T10:35:46.691Z,77.14
2022-12-24T10:38:13.319Z,77.32
2022-12-24T10:40:40.729Z,77.67
2022-12-24T10:43:18.171Z,77.56
2022-12-24T10:45:50.220Z,77.20
2022-12-24T10:48:27.295Z,76.73
2022-12-24T10:51:00.343Z,75.37
2022-12-24T10:53:37.055Z,74.99
2022-12-24T10:56:05.529Z,75.41
2022-12-24T10:58:32.188Z,74.90
2022-12-24T11:00:58.903Z,74.96
2022-12-24T11:03:35.417Z,75.12
2022-12-24T11:06:10.087Z,74.92
2022-12-24T11:08:38.216Z,74.58
2022-12-24T11:11:07.066Z,75.78
2022-12-24T11:13:58.248Z,74.71
2022-12-24T11:16:32.725Z,74.97
2022-12-24T11:19:04.341Z,74.98
2022-12-24T11:21:39.293Z,75.50
2022-12-24T11:24:11.922Z,75.37
2022-12-24T11:26:38.583Z,75.20
2022-12-24T11:29:05.053Z,76.19
2022-12-24T11:31:31.743Z,75.65
2022-12-24T11:33:58.463Z,75.78
2022-12-24T11:36:25.100Z,76.10
2022-12-24T11:38:57.912Z,75.79
2022-12-24T11:41:25.158Z,75.52
2022-12-24T11:43:52.524Z,75.45
2022-12-24T11:46:34.872Z,74.33
2022-12-24T11:49:17.465Z,74.17
2022-12-24T11:52:09.725Z,74.16
2022-12-24T11:55:37.940Z,74.28
2022-12-24T11:58:23.176Z,73.34
2022-12-24T12:00:50.828Z,73.88
2022-12-24T12:03:58.308Z,72.16
2022-12-24T12:06:39.001Z,71.96
2022-12-24T12:09:24.747Z,72.74
2022-12-24T12:12:14.591Z,73.12
2022-12-24T12:14:45.096Z,73.18
2022-12-24T12:17:30.305Z,71.58
2022-12-24T12:20:07.535Z,71.10
2022-12-24T12:23:01.433Z,71.40
2022-12-24T12:25:34.199Z,72.02
2022-12-24T12:28:00.993Z,72.02
2022-12-24T12:30:27.663Z,72.00
2022-12-24T12:32:57.466Z,71.91
2022-12-24T12:35:40.878Z,72.02
2022-12-24T12:38:25.363Z,71.91
2022-12-24T12:41:13.655Z,71.65
2022-12-24T12:44:02.895Z,71.67
2022-12-24T12:46:35.469Z,72.07
2022-12-24T12:49:25.000Z,71.66
2022-12-24T12:51:55.808Z,71.26
2022-12-24T12:54:32.530Z,70.78
2022-12-24T12:57:03.471Z,71.25
2022-12-24T12:59:32.151Z,71.88
2022-12-24T13:02:41.802Z,71.45
2022-12-24T13:05:20.200Z,70.94
2022-12-24T13:08:01.903Z,70.46
2022-12-24T13:10:41.443Z,70.52
2022-12-24T13:13:32.645Z,72.09
2022-12-24T13:16:38.033Z,71.78
2022-12-24T13:19:34.304Z,71.29
2022-12-24T13:22:04.408Z,71.23
2022-12-24T13:24:31.385Z,71.21
2022-12-24T13:27:18.127Z,71.47
2022-12-24T13:29:52.527Z,71.97
2022-12-24T13:32:22.084Z,71.71
2022-12-24T13:34:56.141Z,71.50
2022-12-24T13:37:23.721Z,71.30
2022-12-24T13:40:06.348Z,71.56
2022-12-24T13:43:01.062Z,71.72
2022-12-24T13:45:31.948Z,72.44
2022-12-24T13:48:08.265Z,72.26
2022-12-24T13:50:37.867Z,71.93
2022-12-24T13:53:05.486Z,72.04
2022-12-24T13:55:33.052Z,72.67
2022-12-24T13:58:01.724Z,71.86
2022-12-24T14:00:39.408Z,71.84
2022-12-24T14:03:08.023Z,71.54
2022-12-24T14:06:05.516Z,70.81
2022-12-24T14:08:35.333Z,71.02
2022-12-24T14:11:12.275Z,71.32
2022-12-24T14:13:38.948Z,71.46
2022-12-24T14:16:08.563Z,71.57
2022-12-24T14:18:38.538Z,71.42
2022-12-24T14:21:05.614Z,70.74
2022-12-24T14:23:56.040Z,71.21
2022-12-24T14:26:25.655Z,71.39
2022-12-24T14:29:08.297Z,71.37
2022-12-24T14:31:35.926Z,72.10
2022-12-24T14:34:12.191Z,71.69
2022-12-24T14:36:39.045Z,72.17
2022-12-24T14:39:09.082Z,71.64
2022-12-24T14:41:53.878Z,72.10
2022-12-24T14:44:49.553Z,71.67
2022-12-24T14:47:28.053Z,71.61
2022-12-24T14:50:32.648Z,71.69
2022-12-24T14:53:09.396Z,71.46
2022-12-24T14:55:50.826Z,71.96
2022-12-24T14:58:29.971Z,71.34
2022-12-24T15:01:02.336Z,71.95
2022-12-24T15:03:31.023Z,71.35
2022-12-24T15:06:05.206Z,71.59
2022-12-24T15:08:45.251Z,71.54
2022-12-24T15:11:17.121Z,71.77
2022-12-24T15:13:45.453Z,72.56
2022-12-24T15:16:13.657Z,72.34
2022-12-24T15:18:49.965Z,72.67
2022-12-24T15:21:20.591Z,72.94
2022-12-24T15:23:50.934Z,72.71
2022-12-24T15:26:30.096Z,73.26
2022-12-24T15:29:02.807Z,72.75
2022-12-24T15:31:32.218Z,73.33
2022-12-24T15:33:59.046Z,73.36
2022-12-24T15:36:35.819Z,74.01
2022-12-24T15:39:07.616Z,73.73
2022-12-24T15:41:41.764Z,74.11
2022-12-24T15:44:08.459Z,74.16
2022-12-24T15:46:35.168Z,74.49
2022-12-24T15:49:01.894Z,74.64
2022-12-24T15:51:33.933Z,74.33
2022-12-24T15:54:06.686Z,74.52
2022-12-24T15:56:44.333Z,74.67
2022-12-24T15:59:17.914Z,74.64
2022-12-24T16:01:44.811Z,74.45
2022-12-24T16:04:31.683Z,74.94
2022-12-24T16:06:59.498Z,74.58
2022-12-24T16:09:35.085Z,74.64
2022-12-24T16:12:04.497Z,74.49
2022-12-24T16:14:31.632Z,74.30
2022-12-24T16:16:58.285Z,74.56
2022-12-24T16:19:37.689Z,74.38
2022-12-24T16:24:53.642Z,73.88
2022-12-24T16:27:20.313Z,74.05
2022-12-24T16:29:49.686Z,73.79
2022-12-24T16:32:33.020Z,74.25
2022-12-24T16:35:01.707Z,74.66
2022-12-24T16:37:28.338Z,74.79
2022-12-24T16:39:54.988Z,74.93
2022-12-24T16:42:21.623Z,75.01
2022-12-24T16:44:48.330Z,74.85
2022-12-24T16:47:19.924Z,75.38
2022-12-24T16:49:46.628Z,75.34
2022-12-24T16:52:29.095Z,75.31
2022-12-24T16:54:56.303Z,75.62
2022-12-24T16:57:23.360Z,74.91
2022-12-24T16:59:50.162Z,74.67
2022-12-24T17:02:18.325Z,74.70
2022-12-24T17:04:45.098Z,74.72
2022-12-24T17:07:12.332Z,75.07
2022-12-24T17:09:38.988Z,75.11
2022-12-24T17:12:05.929Z,75.37
2022-12-24T17:14:32.627Z,75.27
2022-12-24T17:16:59.280Z,75.62
2022-12-24T17:19:25.997Z,75.41
2022-12-24T17:21:52.671Z,75.23
2022-12-24T17:24:19.381Z,75.47
2022-12-24T17:26:46.076Z,75.67
2022-12-24T17:29:12.805Z,75.66
2022-12-24T17:31:39.564Z,75.70
2022-12-24T17:34:06.405Z,76.14
2022-12-24T17:36:33.085Z,76.04
2022-12-24T17:38:59.748Z,75.47
2022-12-24T17:41:26.404Z,75.96
2022-12-24T17:43:53.055Z,75.82
2022-12-24T17:46:21.512Z,75.92
2022-12-24T17:48:48.537Z,75.26
2022-12-24T17:51:16.227Z,75.33
2022-12-24T17:53:42.962Z,75.83
2022-12-24T17:56:10.846Z,76.12
2022-12-24T17:58:37.594Z,76.26
2022-12-24T18:01:04.309Z,75.81
2022-12-24T18:03:31.039Z,75.61
2022-12-24T18:06:04.696Z,75.11
2022-12-24T18:08:31.321Z,75.49
2022-12-24T18:10:58.050Z,75.69
2022-12-24T18:13:24.745Z,75.83
2022-12-24T18:15:51.445Z,75.51
2022-12-24T18:18:18.164Z,75.55
2022-12-24T18:20:47.104Z,76.09
2022-12-24T18:23:13.956Z,76.19
2022-12-24T18:25:40.657Z,76.30
2022-12-24T18:28:07.301Z,76.30
2022-12-24T18:30:33.958Z,76.44
2022-12-24T18:33:00.805Z,75.59
2022-12-24T18:35:27.480Z,75.26
2022-12-24T18:37:54.132Z,75.25
2022-12-24T18:40:20.815Z,75.49
2022-12-24T18:42:47.525Z,75.83
2022-12-24T18:45:14.288Z,75.87
2022-12-24T18:47:41.021Z,76.50
2022-12-24T18:50:07.975Z,76.33
2022-12-24T18:52:35.381Z,75.68
2022-12-24T18:55:02.072Z,76.34
2022-12-24T18:57:28.722Z,76.10
2022-12-24T18:59:55.362Z,75.78
2022-12-24T19:02:22.119Z,76.82
2022-12-24T19:04:48.884Z,76.78
2022-12-24T19:07:15.538Z,77.06
2022-12-24T19:09:42.216Z,76.42
2022-12-24T19:12:09.009Z,77.05
2022-12-24T19:14:35.654Z,76.22
2022-12-24T19:17:02.300Z,75.57
2022-12-24T19:19:28.975Z,75.43
2022-12-24T19:21:55.673Z,75.97
2022-12-24T19:24:22.321Z,75.74
2022-12-24T19:26:48.994Z,75.54
2022-12-24T19:29:15.674Z,76.14
2022-12-24T19:31:42.358Z,76.42
2022-12-24T19:34:09.033Z,76.02
2022-12-24T19:36:35.691Z,76.09
2022-12-24T19:39:02.347Z,76.54
2022-12-24T19:41:29.304Z,75.99
2022-12-24T19:43:57.474Z,76.16
2022-12-24T19:46:26.179Z,76.00
2022-12-24T19:48:57.969Z,75.75
2022-12-24T19:51:24.919Z,75.72
2022-12-24T19:53:51.599Z,75.59
2022-12-24T19:56:19.168Z,75.81
2022-12-24T19:58:45.924Z,75.53
2022-12-24T20:01:17.152Z,75.49
2022-12-24T20:03:44.598Z,76.17
2022-12-24T20:06:11.714Z,75.42
2022-12-24T20:08:38.756Z,75.06
2022-12-24T20:11:06.255Z,75.07
2022-12-24T20:13:33.690Z,74.94
2022-12-24T20:16:04.671Z,75.32
2022-12-24T20:18:31.342Z,76.26
2022-12-24T20:21:01.749Z,75.92
2022-12-24T20:23:28.434Z,76.28
2022-12-24T20:26:01.318Z,76.86
2022-12-24T20:28:28.833Z,76.54
2022-12-24T20:30:58.136Z,76.68
2022-12-24T20:33:26.005Z,76.77
2022-12-24T20:35:53.606Z,76.69
2022-12-24T20:38:22.231Z,76.41
2022-12-24T20:40:50.887Z,76.12
2022-12-24T20:43:23.888Z,76.52
2022-12-24T20:45:56.175Z,76.16
2022-12-24T20:48:24.738Z,76.51
2022-12-24T20:50:52.360Z,76.15
2022-12-24T20:53:19.116Z,76.22
2022-12-24T20:55:46.583Z,76.40
2022-12-24T20:58:13.298Z,75.47
2022-12-24T21:00:39.954Z,75.82
2022-12-24T21:03:06.633Z,75.21
2022-12-24T21:05:33.281Z,75.52
2022-12-24T21:07:59.933Z,75.21
2022-12-24T21:10:32.297Z,75.55
2022-12-24T21:13:00.796Z,75.72
2022-12-24T21:15:35.354Z,76.79
2022-12-24T21:18:02.052Z,76.20
2022-12-24T21:20:28.717Z,77.14
2022-12-24T21:23:00.850Z,77.33
2022-12-24T21:25:28.146Z,76.42
2022-12-24T21:27:54.771Z,76.44
2022-12-24T21:30:21.456Z,76.07
2022-12-24T21:32:48.230Z,75.98
2022-12-24T21:35:14.912Z,76.69
2022-12-24T21:37:41.569Z,76.71
2022-12-24T21:40:08.801Z,75.86
2022-12-24T21:42:35.454Z,76.54
2022-12-24T21:45:02.423Z,76.32
2022-12-24T21:47:29.063Z,76.59
2022-12-24T21:49:55.695Z,75.63
2022-12-24T21:52:22.354Z,75.58
2022-12-24T21:54:49.005Z,75.06
2022-12-24T21:57:15.678Z,75.49
2022-12-24T21:59:42.319Z,75.51
2022-12-24T22:02:13.115Z,74.88
2022-12-24T22:04:39.905Z,74.84
2022-12-24T22:07:06.550Z,73.33
2022-12-24T22:09:33.229Z,74.46
2022-12-24T22:11:59.874Z,73.17
2022-12-24T22:14:26.542Z,73.27
2022-12-24T22:16:53.201Z,73.50
2022-12-24T22:19:19.850Z,73.28
2022-12-24T22:21:46.490Z,72.99
2022-12-24T22:24:13.150Z,73.60
2022-12-24T22:26:39.805Z,74.42
2022-12-24T22:29:06.470Z,74.68
2022-12-24T22:31:33.253Z,74.51
2022-12-24T22:34:00.171Z,74.55
2022-12-24T22:36:26.939Z,74.87
2022-12-24T22:38:53.598Z,75.13
2022-12-24T22:41:20.267Z,74.78
2022-12-24T22:43:46.961Z,74.42
2022-12-24T22:46:13.743Z,75.08
2022-12-24T22:48:40.837Z,74.73
2022-12-24T22:51:15.839Z,74.91
2022-12-24T22:53:42.535Z,74.10
2022-12-24T22:56:09.659Z,74.70
2022-12-24T22:58:36.334Z,75.14
2022-12-24T23:01:02.974Z,74.78
2022-12-24T23:03:29.751Z,75.33
2022-12-24T23:06:00.099Z,74.56
2022-12-24T23:08:26.874Z,75.13
2022-12-24T23:10:54.134Z,74.99
2022-12-24T23:13:20.888Z,75.90
2022-12-24T23:15:47.590Z,75.68
2022-12-24T23:18:14.297Z,75.48
2022-12-24T23:20:42.076Z,75.70
2022-12-24T23:23:09.121Z,75.49
2022-12-24T23:25:35.877Z,74.93
2022-12-24T23:28:02.538Z,75.59
2022-12-24T23:30:29.198Z,75.30
2022-12-24T23:32:55.864Z,75.68
2022-12-24T23:35:22.493Z,74.92
2022-12-24T23:37:49.140Z,75.41
2022-12-24T23:40:15.912Z,75.46
2022-12-24T23:42:42.542Z,75.69
2022-12-24T23:45:09.430Z,75.65
2022-12-24T23:47:36.100Z,75.46
2022-12-24T23:50:04.862Z,75.48
2022-12-24T23:52:31.573Z,74.89
2022-12-24T23:54:58.249Z,75.58
2022-12-24T23:57:24.926Z,74.66
2022-12-24T23:59:51.624Z,75.17
